createdAt,value
2018-11-02T00:02:04.642Z,41.23
2018-11-02T00:04:32.260Z,41.63
2018-11-02T00:06:59.938Z,42.33
2018-11-02T00:09:27.561Z,41.88
2018-11-02T00:11:55.230Z,41.55
2018-11-02T00:14:22.997Z,41.13
2018-11-02T00:16:50.605Z,42.30
2018-11-02T00:19:22.736Z,41.13
2018-11-02T00:21:50.416Z,41.37
2018-11-02T00:24:18.113Z,40.92
2018-11-02T00:26:45.774Z,40.03
2018-11-02T00:29:13.397Z,40.30
2018-11-02T00:31:41.016Z,41.80
2018-11-02T00:34:08.654Z,41.58
2018-11-02T00:36:36.257Z,42.13
2018-11-02T00:39:05.174Z,41.95
2018-11-02T00:41:32.772Z,41.98
2018-11-02T00:44:00.526Z,42.08
2018-11-02T00:46:28.052Z,41.58
2018-11-02T00:48:56.449Z,41.85
2018-11-02T00:51:24.085Z,43.17
2018-11-02T00:53:52.334Z,43.80
2018-11-02T00:56:19.929Z,44.23
2018-11-02T00:58:47.654Z,44.80
2018-11-02T01:03:53.297Z,41.90
2018-11-02T01:06:20.893Z,41.77
2018-11-02T01:08:48.512Z,41.28
2018-11-02T01:11:16.113Z,40.67
2018-11-02T01:13:43.946Z,40.90
2018-11-02T01:16:11.605Z,40.40
2018-11-02T01:18:39.383Z,30.77
2018-11-02T01:21:07.208Z,40.98
2018-11-02T01:23:35.193Z,40.63
2018-11-02T01:26:03.019Z,41.37
2018-11-02T01:28:30.801Z,40.40
2018-11-02T01:30:58.602Z,40.00
2018-11-02T01:33:31.714Z,39.78
2018-11-02T01:36:00.178Z,39.98
2018-11-02T01:38:27.753Z,39.20
2018-11-02T01:40:55.593Z,39.90
2018-11-02T01:43:23.372Z,40.03
2018-11-02T01:45:51.855Z,40.45
2018-11-02T01:48:19.582Z,39.10
2018-11-02T01:50:47.281Z,29.42
2018-11-02T01:53:15.014Z,38.38
2018-11-02T01:55:50.809Z,38.15
2018-11-02T01:58:18.629Z,38.23
2018-11-02T02:00:46.265Z,38.23
2018-11-02T02:03:14.540Z,37.80
2018-11-02T02:05:42.174Z,38.05
2018-11-02T02:08:09.778Z,37.83
2018-11-02T02:10:37.381Z,27.98
2018-11-02T02:13:05.378Z,37.50
2018-11-02T02:15:32.954Z,37.17
2018-11-02T02:18:00.587Z,36.95
2018-11-02T02:20:28.267Z,37.00
2018-11-02T02:22:55.912Z,37.33
2018-11-02T02:25:23.465Z,27.42
2018-11-02T02:27:51.122Z,37.28
2018-11-02T02:30:18.778Z,37.23
2018-11-02T02:32:46.390Z,36.83
2018-11-02T02:35:14.011Z,36.98
2018-11-02T02:37:41.669Z,36.98
2018-11-02T02:40:11.124Z,1.82
2018-11-02T02:42:39.269Z,1.72
2018-11-02T02:45:07.601Z,1.75
2018-11-02T02:50:29.698Z,1.90
2018-11-02T02:52:57.271Z,34.25
2018-11-02T02:55:24.868Z,36.08
2018-11-02T02:57:52.601Z,36.45
2018-11-02T03:00:20.232Z,36.10
2018-11-02T03:02:47.863Z,17.57
2018-11-02T03:05:15.569Z,35.45
2018-11-02T03:07:43.143Z,36.20
2018-11-02T03:10:10.765Z,35.38
2018-11-02T03:12:38.629Z,8.53
2018-11-02T03:15:06.609Z,35.03
2018-11-02T03:17:34.571Z,35.20
2018-11-02T03:20:02.593Z,35.10
2018-11-02T03:22:30.308Z,35.98
2018-11-02T03:24:57.897Z,3.05
2018-11-02T03:27:25.569Z,33.25
2018-11-02T03:29:53.137Z,33.70
2018-11-02T03:32:20.823Z,34.23
2018-11-02T03:34:48.617Z,34.75
2018-11-02T03:37:16.361Z,33.45
2018-11-02T03:39:52.075Z,33.75
2018-11-02T03:42:19.810Z,33.83
2018-11-02T03:44:47.493Z,32.98
2018-11-02T03:47:16.248Z,33.10
2018-11-02T03:49:47.986Z,33.13
2018-11-02T03:52:15.645Z,33.48
2018-11-02T03:54:43.276Z,32.17
2018-11-02T03:57:10.869Z,33.18
2018-11-02T03:59:38.501Z,31.05
2018-11-02T04:02:06.329Z,23.42
2018-11-02T04:04:33.928Z,31.42
2018-11-02T04:07:01.515Z,29.18
2018-11-02T04:09:29.128Z,31.27
2018-11-02T04:11:56.810Z,22.95
2018-11-02T04:14:24.457Z,12.68
2018-11-02T04:16:52.098Z,23.77
2018-11-02T04:19:19.717Z,28.27
2018-11-02T04:21:48.205Z,30.40
2018-11-02T04:24:15.904Z,20.90
2018-11-02T04:26:43.529Z,29.60
2018-11-02T04:29:12.415Z,23.10
2018-11-02T04:31:40.317Z,27.32
2018-11-02T04:34:08.042Z,11.95
2018-11-02T04:36:35.732Z,20.97
2018-11-02T04:39:05.178Z,26.02
2018-11-02T04:41:32.833Z,24.65
2018-11-02T04:44:00.450Z,14.15
2018-11-02T04:46:29.151Z,19.80
2018-11-02T04:49:01.584Z,29.15
2018-11-02T04:51:29.160Z,28.77
2018-11-02T04:53:56.921Z,25.32
2018-11-02T04:56:25.450Z,20.17
2018-11-02T04:58:53.164Z,28.95
2018-11-02T05:01:22.542Z,25.08
2018-11-02T05:03:56.328Z,23.52
2018-11-02T05:06:24.116Z,25.52
2018-11-02T05:08:52.951Z,27.55
2018-11-02T05:11:20.779Z,21.40
2018-11-02T05:13:48.340Z,23.42
2018-11-02T05:16:16.001Z,28.42
2018-11-02T05:18:44.044Z,29.60
2018-11-02T05:21:11.720Z,35.68
2018-11-02T05:23:39.401Z,35.20
2018-11-02T05:26:07.356Z,38.33
2018-11-02T05:28:35.153Z,36.03
2018-11-02T05:31:02.840Z,36.10
2018-11-02T05:33:30.675Z,36.63
2018-11-02T05:35:58.329Z,36.50
2018-11-02T05:38:25.991Z,36.50
2018-11-02T05:40:53.674Z,36.68
2018-11-02T05:43:21.288Z,36.83
2018-11-02T05:45:48.877Z,35.25
2018-11-02T05:48:16.604Z,36.28
2018-11-02T05:50:44.305Z,36.00
2018-11-02T05:53:12.002Z,36.53
2018-11-02T05:55:39.669Z,36.17
2018-11-02T05:58:08.009Z,36.33
2018-11-02T06:00:36.163Z,41.20
2018-11-02T06:03:04.664Z,36.95
2018-11-02T06:05:32.759Z,36.98
2018-11-02T06:08:00.542Z,38.30
2018-11-02T06:10:28.333Z,35.85
2018-11-02T06:12:55.927Z,37.10
2018-11-02T06:15:23.770Z,36.93
2018-11-02T06:17:51.841Z,36.45
2018-11-02T06:20:19.994Z,36.58
2018-11-02T06:22:47.858Z,37.83
2018-11-02T06:25:15.450Z,36.60
2018-11-02T06:27:43.170Z,37.00
2018-11-02T06:30:10.794Z,36.60
2018-11-02T06:32:44.269Z,38.23
2018-11-02T06:35:11.853Z,37.05
2018-11-02T06:37:39.543Z,37.53
2018-11-02T06:40:07.370Z,37.95
2018-11-02T06:42:36.088Z,37.85
2018-11-02T06:45:04.319Z,37.05
2018-11-02T06:47:32.067Z,39.98
2018-11-02T06:50:09.539Z,42.53
2018-11-02T06:52:37.221Z,37.48
2018-11-02T06:55:21.160Z,40.60
2018-11-02T06:58:11.447Z,37.58
2018-11-02T07:00:39.307Z,36.08
2018-11-02T07:03:06.894Z,36.93
2018-11-02T07:05:34.770Z,39.70
2018-11-02T07:08:02.613Z,36.63
2018-11-02T07:10:30.124Z,35.58
2018-11-02T07:12:57.830Z,37.78
2018-11-02T07:15:25.560Z,37.75
2018-11-02T07:17:53.306Z,38.30
2018-11-02T07:20:20.862Z,36.90
2018-11-02T07:22:48.478Z,35.13
2018-11-02T07:25:16.124Z,36.15
2018-11-02T07:27:43.651Z,37.70
2018-11-02T07:30:11.617Z,36.28
2018-11-02T07:32:39.635Z,36.35
2018-11-02T07:35:08.319Z,35.30
2018-11-02T07:37:36.261Z,37.70
2018-11-02T07:40:04.220Z,36.85
2018-11-02T07:42:31.863Z,35.00
2018-11-02T07:44:59.527Z,33.78
2018-11-02T07:47:27.144Z,31.70
2018-11-02T07:49:54.701Z,23.27
2018-11-02T07:52:22.438Z,15.68
2018-11-02T07:54:50.049Z,23.10
2018-11-02T07:57:25.220Z,34.35
2018-11-02T07:59:52.854Z,34.92
2018-11-02T08:02:20.464Z,34.43
2018-11-02T08:04:49.079Z,33.88
2018-11-02T08:07:16.697Z,34.40
2018-11-02T08:09:44.319Z,34.18
2018-11-02T08:12:11.922Z,34.03
2018-11-02T08:14:40.308Z,34.15
2018-11-02T08:17:07.929Z,34.35
2018-11-02T08:19:36.453Z,34.20
2018-11-02T08:22:04.546Z,34.20
2018-11-02T08:24:32.148Z,35.08
2018-11-02T08:26:59.687Z,34.58
2018-11-02T08:29:27.224Z,35.08
2018-11-02T08:31:54.878Z,35.75
2018-11-02T08:34:22.362Z,34.08
2018-11-02T08:36:50.072Z,34.85
2018-11-02T08:39:18.508Z,34.15
2018-11-02T08:41:46.814Z,34.60
2018-11-02T08:44:30.117Z,34.67
2018-11-02T08:46:57.653Z,34.55
2018-11-02T08:49:25.214Z,33.80
2018-11-02T08:51:59.649Z,27.67
2018-11-02T08:54:27.159Z,22.32
2018-11-02T08:56:54.617Z,27.60
2018-11-02T08:59:23.526Z,30.68
2018-11-02T09:01:51.141Z,27.75
2018-11-02T09:04:18.820Z,27.42
2018-11-02T09:06:46.454Z,33.13
2018-11-02T09:09:14.153Z,31.47
2018-11-02T09:11:41.836Z,27.03
2018-11-02T09:14:09.979Z,25.37
2018-11-02T09:16:37.724Z,24.57
2018-11-02T09:19:05.744Z,23.17
2018-11-02T09:21:33.406Z,22.73
2018-11-02T09:24:01.070Z,22.83
2018-11-02T09:26:28.694Z,23.13
2018-11-02T09:28:56.670Z,23.13
2018-11-02T09:31:24.661Z,25.57
2018-11-02T09:33:52.272Z,24.63
2018-11-02T09:36:20.035Z,24.53
2018-11-02T09:38:47.729Z,21.00
2018-11-02T09:41:15.598Z,20.83
2018-11-02T09:43:43.285Z,19.30
2018-11-02T09:46:11.242Z,17.40
2018-11-02T09:48:39.058Z,14.10
2018-11-02T09:51:06.755Z,9.70
2018-11-02T09:53:34.426Z,3.63
2018-11-02T09:56:02.269Z,1.70
2018-11-02T10:10:48.048Z,3.90
2018-11-02T10:13:15.938Z,1.67
2018-11-02T10:18:11.238Z,1.07
2018-11-02T10:23:06.190Z,1.20
2018-11-02T10:25:34.606Z,3.70
2018-11-02T10:30:29.553Z,0.90
2018-11-02T10:35:28.684Z,1.30
2018-11-02T10:40:46.442Z,5.05
2018-11-02T10:46:23.178Z,5.22
2018-11-02T10:48:56.430Z,10.30
2018-11-02T10:51:31.302Z,5.30
2018-11-02T10:56:36.607Z,2.98
2018-11-02T11:01:47.955Z,3.30
2018-11-02T11:07:08.603Z,3.40
2018-11-02T11:12:14.465Z,3.50
2018-11-02T11:17:17.856Z,3.10
2018-11-02T11:22:25.567Z,3.47
2018-11-02T11:27:40.072Z,3.40
2018-11-02T11:32:56.787Z,3.58
2018-11-02T11:38:12.502Z,3.80
2018-11-02T11:43:17.272Z,4.70
2018-11-02T11:48:23.584Z,5.30
2018-11-02T11:53:42.382Z,4.40
2018-11-02T11:58:51.025Z,3.70
2018-11-02T12:03:57.814Z,3.47
2018-11-02T12:09:06.606Z,3.33
2018-11-02T12:14:24.498Z,4.15
2018-11-02T12:19:31.862Z,4.60
2018-11-02T12:24:34.804Z,0.50
2018-11-02T12:29:47.438Z,0.43
2018-11-02T12:37:13.184Z,0.40
2018-11-02T12:47:09.673Z,0.70
2018-11-02T13:16:37.970Z,0.60
2018-11-02T13:31:29.902Z,0.60
2018-11-02T13:48:46.871Z,0.60
2018-11-02T13:53:44.134Z,0.90
2018-11-02T14:08:29.094Z,2.80
2018-11-02T14:13:39.778Z,0.80
2018-11-02T14:33:23.316Z,1.95
2018-11-02T14:43:20.015Z,2.58
2018-11-02T14:58:10.450Z,6.08
2018-11-02T15:13:11.912Z,6.67
2018-11-02T15:40:13.379Z,6.10
2018-11-02T15:47:41.175Z,6.50
2018-11-02T16:07:25.897Z,5.90
2018-11-02T16:22:16.107Z,4.20
2018-11-02T16:37:01.334Z,3.52
2018-11-02T17:04:02.291Z,2.10
2018-11-02T17:16:25.373Z,1.60
2018-11-02T17:28:43.832Z,1.50
2018-11-02T17:36:14.090Z,1.27
2018-11-02T17:46:05.032Z,1.00
2018-11-02T18:00:49.915Z,0.90
2018-11-02T18:08:12.713Z,0.80
2018-11-02T18:18:02.683Z,0.70
2018-11-02T18:30:29.426Z,0.70
2018-11-02T19:05:06.231Z,0.60
2018-11-02T19:12:29.178Z,0.50
2018-11-02T19:29:42.294Z,0.50
2018-11-02T19:46:55.049Z,0.40
2018-11-02T19:56:45.601Z,0.30
2018-11-02T20:04:08.842Z,0.30
2018-11-02T20:18:55.734Z,0.20
2018-11-02T23:35:43.190Z,0.00
